Time;durP1;ratioP1;P1;durP2;ratioP2;P2;SDS_P1;SDS_P2;PMS_P1;PMS_P2;Temp;Humidity;BMP_temperature;BMP_pressure;BME280_temperature;BME280_humidity;BME280_pressure;Samples;Min_cycle;Max_cycle;Signal;HPM_P1;HPM_P2
2022/10/25 00:02:24;;;;;;;5.07;1.17;;;16.40;99.90;;;;;;5111624;28;20237;-31
2022/10/25 00:04:51;;;;;;;3.90;1.13;;;16.40;99.90;;;;;;5111553;28;20643;-31
2022/10/25 00:07:23;;;;;;;6.40;1.20;;;16.40;99.90;;;;;;5111451;28;20220;-31
2022/10/25 00:09:50;;;;;;;4.80;1.40;;;16.40;99.90;;;;;;5111719;28;20208;-31
2022/10/25 00:12:20;;;;;;;5.13;1.10;;;16.40;99.90;;;;;;5111452;28;20222;-30
2022/10/25 00:14:47;;;;;;;4.00;1.37;;;16.40;99.90;;;;;;5111368;28;20206;-29
2022/10/25 00:17:14;;;;;;;4.33;1.47;;;16.40;99.90;;;;;;5111282;28;20205;-29
2022/10/25 00:19:42;;;;;;;4.17;1.10;;;16.40;99.90;;;;;;5111361;28;20236;-30
2022/10/25 00:22:09;;;;;;;5.20;1.23;;;16.40;99.90;;;;;;5111363;28;20707;-29
2022/10/25 00:24:39;;;;;;;4.80;1.17;;;16.40;99.90;;;;;;5111136;28;20707;-29
2022/10/25 00:27:06;;;;;;;5.97;1.40;;;16.40;99.90;;;;;;5111123;28;20293;-29
2022/10/25 00:29:33;;;;;;;5.00;1.50;;;16.40;99.90;;;;;;5111173;28;20301;-30
2022/10/25 00:32:00;;;;;;;4.70;1.30;;;16.40;99.90;;;;;;5111280;28;20222;-29
2022/10/25 00:34:28;;;;;;;4.80;0.93;;;16.40;99.90;;;;;;5111198;28;20290;-29
2022/10/25 00:36:55;;;;;;;4.70;1.10;;;16.40;99.90;;;;;;5109550;28;20201;-30
2022/10/25 00:39:22;;;;;;;4.33;1.20;;;16.40;99.90;;;;;;5110982;28;20789;-29
2022/10/25 00:41:49;;;;;;;4.07;1.47;;;16.40;99.90;;;;;;5110814;28;20214;-29
2022/10/25 00:44:35;;;;;;;4.83;1.23;;;16.30;99.90;;;;;;5110645;28;20293;-30
2022/10/25 00:47:16;;;;;;;4.67;1.10;;;16.40;99.90;;;;;;5109329;28;20232;-29
2022/10/25 00:49:58;;;;;;;3.27;1.10;;;16.30;99.90;;;;;;5110624;28;20202;-30
2022/10/25 00:52:28;;;;;;;5.47;1.40;;;16.30;99.90;;;;;;5110552;28;20214;-29
2022/10/25 00:54:56;;;;;;;5.07;1.10;;;16.30;99.90;;;;;;5108949;28;20293;-30
2022/10/25 00:57:36;;;;;;;4.40;1.23;;;16.30;99.90;;;;;;5110419;28;20676;-30
2022/10/25 01:00:05;;;;;;;4.17;1.03;;;16.30;99.90;;;;;;5109730;28;20289;-30
2022/10/25 01:02:32;;;;;;;3.10;1.10;;;16.30;99.90;;;;;;5096230;28;20700;-30
2022/10/25 01:05:00;;;;;;;5.50;1.23;;;16.20;99.90;;;;;;5089752;28;20234;-30
2022/10/25 01:07:28;;;;;;;5.40;1.20;;;16.20;99.90;;;;;;5089666;28;20199;-29
2022/10/25 01:09:56;;;;;;;5.90;1.17;;;16.20;99.90;;;;;;5109607;28;20596;-29
2022/10/25 01:12:24;;;;;;;6.03;1.67;;;16.20;99.90;;;;;;5108651;28;20267;-29
2022/10/25 01:14:52;;;;;;;2.83;0.87;;;16.20;99.90;;;;;;5106176;28;20248;-30
2022/10/25 01:17:33;;;;;;;4.23;1.30;;;16.30;99.90;;;;;;5098200;28;20210;-30
2022/10/25 01:20:29;;;;;;;3.13;1.00;;;16.30;99.90;;;;;;5109926;28;20232;-30
2022/10/25 01:23:20;;;;;;;4.67;1.27;;;16.20;99.90;;;;;;5109736;28;20245;-29
2022/10/25 01:26:09;;;;;;;4.07;1.30;;;16.30;99.90;;;;;;5109916;28;20578;-30
2022/10/25 01:29:08;;;;;;;3.90;0.87;;;16.20;99.90;;;;;;5109585;28;20656;-29
2022/10/25 01:31:49;;;;;;;5.13;1.10;;;16.20;99.90;;;;;;5109582;28;20217;-29
2022/10/25 01:34:16;;;;;;;4.70;1.00;;;16.20;99.90;;;;;;5109461;28;20232;-29
2022/10/25 01:37:00;;;;;;;6.83;1.17;;;16.20;99.90;;;;;;5109630;28;20281;-29
2022/10/25 01:39:56;;;;;;;7.80;1.50;;;16.20;99.90;;;;;;5110031;28;20186;-29
2022/10/25 01:42:37;;;;;;;3.73;1.10;;;16.20;99.90;;;;;;5100579;28;20228;-29
2022/10/25 01:45:13;;;;;;;4.20;1.27;;;16.20;99.90;;;;;;5109566;28;20297;-30
2022/10/25 01:47:49;;;;;;;6.73;1.30;;;16.20;99.90;;;;;;5109602;28;20232;-30
2022/10/25 01:50:30;;;;;;;6.63;1.17;;;16.20;99.90;;;;;;5109525;28;20236;-29
2022/10/25 01:52:57;;;;;;;3.63;1.10;;;16.20;99.90;;;;;;5109372;28;20225;-31
2022/10/25 01:55:40;;;;;;;5.93;1.07;;;16.20;99.90;;;;;;5109711;28;20201;-31
2022/10/25 01:58:31;;;;;;;4.77;1.17;;;16.20;99.90;;;;;;5109450;28;20188;-31
2022/10/25 02:01:23;;;;;;;4.93;1.20;;;16.20;99.90;;;;;;5109315;28;20293;-31
2022/10/25 02:04:40;;;;;;;3.83;1.30;;;16.20;99.90;;;;;;5108701;28;20193;-31
2022/10/25 02:07:14;;;;;;;6.20;1.17;;;16.20;99.90;;;;;;5083856;28;20209;-31
2022/10/25 02:09:47;;;;;;;4.80;1.10;;;16.10;99.90;;;;;;5109252;28;20196;-31
2022/10/25 02:12:23;;;;;;;2.67;0.83;;;16.20;99.90;;;;;;5109013;28;20857;-31
2022/10/25 02:15:07;;;;;;;5.30;1.27;;;16.20;99.90;;;;;;5109262;28;20200;-31
2022/10/25 02:17:48;;;;;;;3.70;1.50;;;16.20;99.90;;;;;;5109068;28;20208;-31
2022/10/25 02:20:20;;;;;;;4.87;1.00;;;16.20;99.90;;;;;;5109000;28;20229;-31
2022/10/25 02:22:52;;;;;;;6.63;0.90;;;16.20;99.90;;;;;;5109012;28;20521;-31
2022/10/25 02:25:21;;;;;;;6.37;1.33;;;16.20;99.90;;;;;;5107754;28;20675;-31
2022/10/25 02:27:51;;;;;;;6.53;1.10;;;16.20;99.90;;;;;;5107460;28;20309;-31
2022/10/25 02:30:19;;;;;;;5.87;1.30;;;16.20;99.90;;;;;;5109038;28;20186;-31
2022/10/25 02:32:46;;;;;;;5.07;1.20;;;16.20;99.90;;;;;;5108600;28;20214;-31
2022/10/25 02:35:15;;;;;;;3.50;1.13;;;16.20;99.90;;;;;;5109140;28;20259;-31
2022/10/25 02:37:42;;;;;;;9.30;1.37;;;16.20;99.90;;;;;;5107367;28;20209;-31
2022/10/25 02:40:11;;;;;;;7.93;1.33;;;16.20;99.90;;;;;;5108840;28;20902;-31
2022/10/25 02:42:38;;;;;;;5.00;1.30;;;16.20;99.90;;;;;;5108631;28;20202;-31
2022/10/25 02:45:06;;;;;;;4.90;1.03;;;16.20;99.90;;;;;;5108670;28;20246;-31
2022/10/25 02:47:33;;;;;;;7.60;1.40;;;16.20;99.90;;;;;;5108930;28;20256;-31
2022/10/25 02:50:04;;;;;;;8.77;1.50;;;16.20;99.90;;;;;;5108748;28;20672;-31
2022/10/25 02:52:32;;;;;;;5.60;1.27;;;16.20;99.90;;;;;;5108842;28;20218;-31
2022/10/25 02:54:59;;;;;;;2.53;0.93;;;16.20;99.90;;;;;;5108666;28;20197;-31
2022/10/25 02:57:32;;;;;;;5.00;1.53;;;16.20;99.90;;;;;;5108612;28;20293;-31
2022/10/25 02:59:59;;;;;;;6.13;1.10;;;16.20;99.90;;;;;;5108455;28;20279;-31
2022/10/25 03:02:27;;;;;;;6.00;1.53;;;16.20;99.90;;;;;;5108493;28;20220;-31
2022/10/25 03:04:54;;;;;;;6.07;1.10;;;16.20;99.90;;;;;;5108453;28;20265;-31
2022/10/25 03:07:21;;;;;;;5.17;1.10;;;16.20;99.90;;;;;;5108515;28;20201;-30
2022/10/25 03:09:48;;;;;;;2.90;1.23;;;16.20;99.90;;;;;;5108620;28;20202;-30
2022/10/25 03:12:16;;;;;;;4.10;1.40;;;16.20;99.90;;;;;;5107462;28;20646;-30
2022/10/25 03:14:43;;;;;;;5.63;1.30;;;16.20;99.90;;;;;;5110636;28;20201;-30
2022/10/25 03:17:10;;;;;;;6.60;1.30;;;16.20;99.90;;;;;;5112754;28;20202;-29
2022/10/25 03:19:37;;;;;;;6.93;1.70;;;16.20;99.90;;;;;;5112705;27;20633;-29
2022/10/25 03:22:04;;;;;;;5.67;1.43;;;16.30;99.90;;;;;;5112967;28;20676;-30
2022/10/25 03:24:35;;;;;;;6.03;1.20;;;16.30;99.90;;;;;;5112626;27;20198;-29
2022/10/25 03:27:04;;;;;;;6.23;1.17;;;16.30;99.90;;;;;;5112835;28;20217;-30
2022/10/25 03:29:31;;;;;;;3.85;1.02;;;16.30;99.90;;;;;;5112732;28;20206;-30
2022/10/25 03:31:58;;;;;;;5.10;1.40;;;16.30;99.90;;;;;;5112341;28;20250;-30
2022/10/25 03:34:26;;;;;;;3.23;1.20;;;16.20;99.90;;;;;;5112907;28;20194;-30
2022/10/25 03:36:57;;;;;;;4.07;0.97;;;16.20;99.90;;;;;;5112598;27;20267;-31
2022/10/25 03:39:24;;;;;;;5.77;1.10;;;16.20;99.90;;;;;;5112621;28;20186;-31
2022/10/25 03:41:52;;;;;;;4.07;0.97;;;16.20;99.90;;;;;;5112431;28;20297;-31
2022/10/25 03:44:19;;;;;;;4.60;1.43;;;16.20;99.90;;;;;;5111109;28;20302;-31
2022/10/25 03:46:46;;;;;;;6.93;1.50;;;16.30;99.90;;;;;;5112329;28;20290;-31
2022/10/25 03:49:13;;;;;;;4.80;1.30;;;16.30;99.90;;;;;;5112308;28;20304;-31
2022/10/25 03:51:41;;;;;;;11.80;1.83;;;16.30;99.90;;;;;;5112302;28;20293;-31
2022/10/25 03:54:08;;;;;;;3.30;1.13;;;16.30;99.90;;;;;;5112302;28;20213;-30
2022/10/25 03:56:35;;;;;;;4.50;1.30;;;16.20;99.90;;;;;;5112264;28;20198;-30
2022/10/25 03:59:02;;;;;;;8.23;1.40;;;16.20;99.90;;;;;;5112303;28;20240;-30
2022/10/25 04:01:29;;;;;;;6.83;1.30;;;16.20;99.90;;;;;;5112010;28;20791;-29
2022/10/25 04:03:59;;;;;;;6.00;1.77;;;16.20;99.90;;;;;;5110656;28;20237;-29
2022/10/25 04:06:26;;;;;;;3.53;1.20;;;16.20;99.90;;;;;;5112022;28;20201;-30
2022/10/25 04:08:53;;;;;;;6.80;1.33;;;16.30;99.90;;;;;;5111990;28;20672;-29
2022/10/25 04:11:23;;;;;;;6.70;1.90;;;16.30;99.90;;;;;;5112004;28;20206;-30
2022/10/25 04:13:50;;;;;;;7.00;1.70;;;16.30;99.90;;;;;;5110279;28;20229;-30
2022/10/25 04:16:17;;;;;;;3.40;1.23;;;16.30;99.90;;;;;;5111814;28;20208;-29
2022/10/25 04:18:45;;;;;;;5.20;1.53;;;16.30;99.90;;;;;;5111690;28;20199;-29
2022/10/25 04:21:12;;;;;;;3.47;1.30;;;16.30;99.90;;;;;;5111653;28;20211;-30
2022/10/25 04:23:39;;;;;;;3.73;1.40;;;16.30;99.90;;;;;;5111518;28;20228;-30
2022/10/25 04:26:07;;;;;;;5.00;1.77;;;16.20;99.90;;;;;;5110602;28;20198;-30
2022/10/25 04:28:36;;;;;;;4.23;1.47;;;16.20;99.90;;;;;;5112090;27;20213;-29
2022/10/25 04:31:06;;;;;;;6.03;1.40;;;16.20;99.90;;;;;;5111446;28;20830;-29
2022/10/25 04:33:33;;;;;;;6.03;1.50;;;16.20;99.90;;;;;;5111422;28;20731;-30
2022/10/25 04:36:00;;;;;;;6.77;1.63;;;16.20;99.90;;;;;;5112083;28;20194;-30
2022/10/25 04:38:27;;;;;;;12.17;2.23;;;16.20;99.90;;;;;;5111503;28;20197;-29
2022/10/25 04:40:58;;;;;;;4.60;1.63;;;16.20;99.90;;;;;;5111272;28;20460;-30
2022/10/25 04:43:26;;;;;;;4.67;1.33;;;16.20;99.90;;;;;;5111536;28;20667;-29
2022/10/25 04:45:56;;;;;;;6.23;1.80;;;16.10;99.90;;;;;;5111190;28;20218;-29
2022/10/25 04:48:26;;;;;;;8.73;2.20;;;16.10;99.90;;;;;;5111120;28;20182;-30
2022/10/25 04:50:53;;;;;;;6.30;1.63;;;16.10;99.90;;;;;;5110921;28;20232;-30
2022/10/25 04:53:20;;;;;;;6.40;2.10;;;16.10;99.90;;;;;;5110877;28;20215;-30
2022/10/25 04:55:59;;;;;;;4.77;1.53;;;16.10;99.90;;;;;;5111016;28;20221;-30
2022/10/25 04:58:27;;;;;;;3.88;1.42;;;16.10;99.90;;;;;;5111189;28;20634;-30
2022/10/25 05:01:00;;;;;;;5.20;1.70;;;16.10;99.90;;;;;;5110835;28;20178;-30
2022/10/25 05:03:28;;;;;;;6.37;1.90;;;16.10;99.90;;;;;;5110060;28;20210;-29
2022/10/25 05:06:11;;;;;;;6.00;2.10;;;16.10;99.90;;;;;;5110792;28;20617;-30
2022/10/25 05:08:40;;;;;;;5.67;2.10;;;16.10;99.90;;;;;;5111039;28;20190;-29
2022/10/25 05:11:10;;;;;;;5.97;1.70;;;16.10;99.90;;;;;;5109077;28;20693;-30
2022/10/25 05:13:38;;;;;;;4.30;1.60;;;16.10;99.90;;;;;;5110562;28;20420;-30
2022/10/25 05:16:06;;;;;;;6.73;1.80;;;16.00;99.90;;;;;;5110815;28;20186;-30
2022/10/25 05:18:34;;;;;;;6.13;1.67;;;16.10;99.90;;;;;;5110480;28;20676;-30
2022/10/25 05:21:05;;;;;;;7.23;2.07;;;16.00;99.90;;;;;;5110239;28;20349;-30
2022/10/25 05:23:33;;;;;;;7.73;1.87;;;16.00;99.90;;;;;;5110640;28;20195;-30
2022/10/25 05:26:12;;;;;;;9.47;2.10;;;16.00;99.90;;;;;;5110533;28;20676;-29
2022/10/25 05:28:44;;;;;;;6.10;1.60;;;16.00;99.90;;;;;;5110374;28;20259;-30
2022/10/25 05:31:14;;;;;;;6.47;1.67;;;16.00;99.90;;;;;;5108789;28;20285;-30
2022/10/25 05:33:45;;;;;;;5.80;2.03;;;16.00;99.90;;;;;;5110211;28;20611;-30
2022/10/25 05:36:13;;;;;;;5.57;1.83;;;16.00;99.90;;;;;;5110313;28;20649;-30
2022/10/25 05:38:41;;;;;;;5.50;1.73;;;16.00;99.90;;;;;;5109125;28;20251;-29
2022/10/25 05:41:12;;;;;;;4.23;1.73;;;16.00;99.90;;;;;;5109843;28;20229;-30
2022/10/25 05:43:40;;;;;;;8.07;2.33;;;16.00;99.90;;;;;;5108839;28;20259;-30
2022/10/25 05:46:12;;;;;;;9.47;2.13;;;16.00;99.90;;;;;;5110259;28;20325;-30
2022/10/25 05:48:39;;;;;;;9.30;2.43;;;16.00;99.90;;;;;;5109751;28;20698;-30
2022/10/25 05:51:23;;;;;;;6.60;2.00;;;16.00;99.90;;;;;;5109945;28;20612;-30
2022/10/25 05:54:09;;;;;;;6.63;2.50;;;16.00;99.90;;;;;;5109751;28;20218;-30
2022/10/25 05:56:40;;;;;;;7.60;2.00;;;16.00;99.90;;;;;;5109748;28;20194;-29
2022/10/25 05:59:13;;;;;;;7.33;2.43;;;15.90;99.90;;;;;;5109998;28;20208;-30
2022/10/25 06:01:43;;;;;;;5.90;2.07;;;15.90;99.90;;;;;;5108260;28;20182;-30
2022/10/25 06:04:11;;;;;;;4.53;2.10;;;15.90;99.90;;;;;;5110177;28;20230;-30
2022/10/25 06:06:39;;;;;;;6.27;2.30;;;15.90;99.90;;;;;;5109507;28;20372;-30
2022/10/25 06:09:08;;;;;;;5.32;2.50;;;15.90;99.90;;;;;;5109319;28;20202;-30
2022/10/25 06:11:40;;;;;;;8.93;2.20;;;15.90;99.90;;;;;;5109736;28;20595;-30
2022/10/25 06:14:09;;;;;;;7.37;2.60;;;15.90;99.90;;;;;;5109516;28;20594;-30
2022/10/25 06:16:41;;;;;;;6.40;2.20;;;16.00;99.90;;;;;;5109097;28;20213;-30
2022/10/25 06:19:08;;;;;;;7.87;2.73;;;16.00;99.90;;;;;;5107861;28;20226;-30
2022/10/25 06:21:38;;;;;;;7.93;2.77;;;16.00;99.90;;;;;;5109417;28;20201;-30
2022/10/25 06:24:05;;;;;;;7.43;2.03;;;16.00;99.90;;;;;;5108965;28;20232;-30
2022/10/25 06:26:33;;;;;;;8.40;2.30;;;16.00;99.90;;;;;;5109029;28;20293;-30
2022/10/25 06:29:03;;;;;;;5.57;2.33;;;16.00;99.90;;;;;;5107387;28;20202;-30
2022/10/25 06:31:33;;;;;;;6.50;2.40;;;16.00;99.90;;;;;;5109105;28;20209;-30
2022/10/25 06:34:01;;;;;;;6.87;2.83;;;16.10;99.90;;;;;;5109204;28;20214;-30
2022/10/25 06:36:31;;;;;;;6.43;2.23;;;16.10;99.90;;;;;;5108995;28;20190;-29
2022/10/25 06:38:59;;;;;;;7.53;2.60;;;16.10;99.90;;;;;;5107627;28;20214;-30
2022/10/25 06:41:35;;;;;;;9.53;3.37;;;16.10;99.90;;;;;;5109007;28;20300;-30
2022/10/25 06:44:04;;;;;;;6.47;2.50;;;16.10;99.90;;;;;;5108860;28;20194;-31
2022/10/25 06:46:37;;;;;;;7.57;3.03;;;16.10;99.90;;;;;;5109111;28;20201;-30
2022/10/25 06:49:24;;;;;;;5.70;2.90;;;16.20;99.90;;;;;;5110257;28;20240;-30
2022/10/25 06:51:51;;;;;;;4.67;2.73;;;16.20;99.90;;;;;;5113070;28;20209;-31
2022/10/25 06:54:19;;;;;;;10.07;3.50;;;16.20;99.90;;;;;;5113169;28;20589;-30
2022/10/25 06:56:47;;;;;;;8.50;3.20;;;16.20;99.90;;;;;;5113113;28;20194;-30
2022/10/25 06:59:14;;;;;;;10.17;3.80;;;16.20;99.90;;;;;;5111869;28;20418;-29
2022/10/25 07:01:41;;;;;;;9.70;3.80;;;16.20;99.90;;;;;;5113277;28;20206;-29
2022/10/25 07:04:08;;;;;;;6.27;3.30;;;16.30;99.90;;;;;;5111733;28;20193;-30
2022/10/25 07:06:36;;;;;;;6.00;3.30;;;16.30;99.90;;;;;;5113067;28;20214;-30
2022/10/25 07:09:07;;;;;;;8.57;4.10;;;16.30;99.90;;;;;;5112801;28;20569;-30
2022/10/25 07:11:35;;;;;;;4.10;2.73;;;16.30;99.90;;;;;;5113097;28;20231;-30
2022/10/25 07:14:04;;;;;;;9.20;3.60;;;16.30;99.90;;;;;;5111322;28;20708;-29
2022/10/25 07:16:31;;;;;;;5.83;3.20;;;16.30;99.90;;;;;;5112865;28;20233;-30
2022/10/25 07:19:01;;;;;;;8.50;3.27;;;16.30;99.90;;;;;;5112658;28;20548;-29
2022/10/25 07:21:30;;;;;;;5.97;3.07;;;16.30;99.90;;;;;;5112728;28;20638;-30
2022/10/25 07:23:57;;;;;;;8.47;3.13;;;16.40;99.90;;;;;;5113324;28;20233;-30
2022/10/25 07:26:30;;;;;;;7.37;3.17;;;16.40;99.90;;;;;;5112695;28;20220;-30
2022/10/25 07:29:00;;;;;;;8.33;3.20;;;16.40;99.90;;;;;;5111175;28;20286;-30
2022/10/25 07:31:29;;;;;;;9.70;3.30;;;16.40;99.90;;;;;;5110846;28;20218;-30
2022/10/25 07:33:59;;;;;;;11.40;3.50;;;16.40;99.90;;;;;;5112110;28;20225;-30
2022/10/25 07:36:29;;;;;;;8.53;3.17;;;16.50;99.90;;;;;;5112908;28;20287;-30
2022/10/25 07:38:59;;;;;;;8.50;2.90;;;16.50;99.90;;;;;;5112292;27;20198;-30
2022/10/25 07:41:27;;;;;;;7.83;2.80;;;16.50;99.90;;;;;;5112397;28;20194;-30
2022/10/25 07:43:54;;;;;;;6.30;2.50;;;16.40;99.90;;;;;;5112217;28;20230;-30
2022/10/25 07:46:22;;;;;;;8.33;2.43;;;16.40;99.90;;;;;;5112262;28;20574;-31
2022/10/25 07:48:51;;;;;;;8.83;2.50;;;16.40;99.90;;;;;;5110660;28;20198;-30
2022/10/25 07:51:21;;;;;;;9.93;2.72;;;16.40;99.90;;;;;;5112092;28;20258;-30
2022/10/25 07:53:49;;;;;;;6.77;2.30;;;16.40;99.90;;;;;;5110866;28;20214;-30
2022/10/25 07:56:19;;;;;;;8.80;2.63;;;16.40;99.90;;;;;;5110692;28;20634;-30
2022/10/25 07:58:53;;;;;;;4.37;2.00;;;16.40;99.90;;;;;;5112117;28;20776;-30
2022/10/25 08:01:23;;;;;;;9.77;2.60;;;16.30;99.90;;;;;;5109289;28;20218;-30
2022/10/25 08:03:52;;;;;;;9.37;2.47;;;16.40;99.90;;;;;;5111986;28;20551;-30
2022/10/25 08:06:21;;;;;;;5.37;1.93;;;16.40;99.90;;;;;;5111865;28;20255;-30
2022/10/25 08:08:48;;;;;;;6.67;2.00;;;16.40;99.90;;;;;;5111554;28;20202;-30
2022/10/25 08:11:15;;;;;;;7.27;2.00;;;16.40;99.90;;;;;;5111806;28;20194;-30
2022/10/25 08:13:45;;;;;;;9.97;2.27;;;16.40;99.90;;;;;;5111665;28;20213;-30
2022/10/25 08:16:12;;;;;;;6.93;2.43;;;16.40;99.90;;;;;;5111574;28;20635;-34
2022/10/25 08:18:42;;;;;;;8.93;2.50;;;16.40;99.90;;;;;;5111382;28;20207;-30
2022/10/25 08:21:10;;;;;;;7.50;1.97;;;16.40;99.90;;;;;;5111318;28;20194;-30
2022/10/25 08:23:39;;;;;;;7.57;2.37;;;16.40;99.90;;;;;;5111100;28;20263;-30
2022/10/25 08:26:07;;;;;;;7.47;1.80;;;16.50;99.90;;;;;;5111433;28;20212;-30
2022/10/25 08:28:34;;;;;;;7.23;1.60;;;16.40;99.90;;;;;;5111368;28;20203;-30
2022/10/25 08:31:03;;;;;;;10.70;1.97;;;16.50;99.90;;;;;;5111407;28;20198;-30
2022/10/25 08:33:34;;;;;;;5.93;1.73;;;16.40;99.90;;;;;;5111213;28;20241;-29
2022/10/25 08:36:02;;;;;;;7.63;1.90;;;16.50;99.90;;;;;;5111199;28;20210;-30
2022/10/25 08:38:29;;;;;;;5.83;1.63;;;16.50;99.90;;;;;;5111485;28;20749;-30
2022/10/25 08:41:08;;;;;;;9.57;2.03;;;16.50;99.90;;;;;;5111259;28;20234;-30
2022/10/25 08:44:10;;;;;;;6.43;1.85;;;16.50;99.90;;;;;;5109744;28;20182;-30
2022/10/25 08:46:39;;;;;;;6.50;1.93;;;16.50;99.90;;;;;;5109552;28;20202;-30
2022/10/25 08:49:18;;;;;;;5.33;1.80;;;16.50;99.90;;;;;;5111350;28;20680;-30
2022/10/25 08:51:49;;;;;;;14.20;2.27;;;16.50;99.90;;;;;;5110869;28;20194;-30
2022/10/25 08:54:22;;;;;;;7.07;2.00;;;16.60;99.90;;;;;;5111087;28;20226;-30
2022/10/25 08:56:56;;;;;;;6.07;1.93;;;16.60;99.90;;;;;;5110974;28;20683;-30
2022/10/25 08:59:44;;;;;;;8.13;1.67;;;16.60;99.90;;;;;;5110749;28;20220;-30
2022/10/25 09:02:22;;;;;;;6.90;2.10;;;16.60;99.90;;;;;;5110505;28;20668;-30
2022/10/25 09:04:50;;;;;;;6.10;1.73;;;16.60;99.90;;;;;;5110538;28;20191;-31
2022/10/25 09:07:35;;;;;;;6.27;2.03;;;16.60;99.90;;;;;;5110446;28;20704;-30
2022/10/25 09:10:17;;;;;;;7.97;1.80;;;16.70;99.90;;;;;;5110497;28;20230;-30
2022/10/25 09:12:57;;;;;;;10.70;2.10;;;16.70;99.90;;;;;;5110301;28;20210;-30
2022/10/25 09:15:42;;;;;;;11.33;2.40;;;16.70;99.90;;;;;;5110457;28;20557;-30
2022/10/25 09:18:18;;;;;;;8.27;1.93;;;16.60;99.90;;;;;;5110040;28;20232;-31
2022/10/25 09:20:52;;;;;;;6.50;1.90;;;16.70;99.90;;;;;;5108802;28;20237;-31
2022/10/25 09:23:22;;;;;;;9.47;2.07;;;16.70;99.90;;;;;;5110089;28;20711;-30
2022/10/25 09:26:08;;;;;;;7.90;1.70;;;16.70;99.90;;;;;;5110151;28;20367;-30
2022/10/25 09:28:38;;;;;;;5.60;1.60;;;16.70;99.90;;;;;;5110052;28;20297;-30
2022/10/25 09:31:09;;;;;;;8.50;1.73;;;16.70;99.90;;;;;;5108845;28;20198;-30
2022/10/25 09:33:43;;;;;;;5.03;1.77;;;16.80;99.90;;;;;;5110001;28;20229;-30
2022/10/25 09:36:13;;;;;;;3.90;1.60;;;16.80;99.90;;;;;;5109826;28;20293;-30
2022/10/25 09:38:47;;;;;;;5.87;1.80;;;16.80;99.90;;;;;;5109879;28;20206;-31
2022/10/25 09:41:39;;;;;;;10.00;2.30;;;16.80;99.90;;;;;;5109900;28;20185;-30
2022/10/25 09:44:22;;;;;;;7.18;1.70;;;16.90;99.90;;;;;;5109706;28;20194;-30
2022/10/25 09:46:56;;;;;;;6.87;2.40;;;16.80;99.90;;;;;;5109574;28;20685;-31
2022/10/25 09:49:48;;;;;;;5.90;1.70;;;16.90;99.90;;;;;;5110009;28;20191;-30
2022/10/25 09:52:49;;;;;;;6.80;1.90;;;16.90;99.90;;;;;;5108194;28;20595;-31
2022/10/25 09:55:32;;;;;;;8.73;1.60;;;16.90;99.90;;;;;;5109495;28;20233;-30
2022/10/25 09:58:00;;;;;;;7.07;1.60;;;16.90;99.90;;;;;;5109648;28;20178;-30
2022/10/25 10:00:28;;;;;;;9.00;2.03;;;17.00;99.90;;;;;;5107998;28;20592;-30
2022/10/25 10:02:55;;;;;;;5.88;1.65;;;17.10;99.90;;;;;;5109585;28;20301;-30
2022/10/25 10:05:29;;;;;;;5.85;1.55;;;17.10;99.90;;;;;;5109038;28;21052;-31
2022/10/25 10:07:56;;;;;;;6.38;1.83;;;17.10;99.90;;;;;;5109045;28;20190;-30
2022/10/25 10:10:31;;;;;;;7.45;1.60;;;17.20;99.90;;;;;;5109163;28;20287;-30
2022/10/25 10:13:29;;;;;;;4.22;1.83;;;17.20;99.90;;;;;;5108994;28;20186;-30
2022/10/25 10:16:07;;;;;;;5.40;1.53;;;17.20;99.90;;;;;;5109451;28;20226;-30
2022/10/25 10:18:36;;;;;;;7.72;2.08;;;17.30;99.90;;;;;;5109300;28;20178;-31
2022/10/25 10:21:14;;;;;;;7.37;1.87;;;17.30;99.90;;;;;;5109216;28;20245;-31
2022/10/25 10:23:56;;;;;;;6.35;1.77;;;17.30;99.90;;;;;;5108384;28;20205;-32
2022/10/25 10:26:30;;;;;;;6.47;1.83;;;17.30;99.90;;;;;;5109213;28;20244;-32
2022/10/25 10:29:05;;;;;;;5.27;1.67;;;17.30;99.90;;;;;;5109252;28;20756;-32
2022/10/25 10:31:43;;;;;;;6.80;1.67;;;17.40;99.90;;;;;;5108398;28;20237;-32
2022/10/25 10:34:42;;;;;;;6.13;1.90;;;17.40;99.90;;;;;;5109132;28;20268;-32
2022/10/25 10:37:16;;;;;;;4.13;1.77;;;17.40;99.90;;;;;;5108720;28;20191;-32
2022/10/25 10:40:09;;;;;;;3.27;1.20;;;17.40;99.90;;;;;;5108610;28;20573;-32
2022/10/25 10:42:40;;;;;;;6.33;1.50;;;17.40;99.90;;;;;;5106307;28;20202;-32
2022/10/25 10:45:07;;;;;;;4.60;1.30;;;17.40;99.90;;;;;;5108782;28;20202;-32
2022/10/25 10:47:40;;;;;;;7.07;1.70;;;17.40;99.90;;;;;;5109060;28;20746;-32
2022/10/25 10:50:21;;;;;;;6.10;1.63;;;17.40;99.90;;;;;;5108520;28;20717;-32
2022/10/25 10:53:03;;;;;;;5.80;1.60;;;17.40;99.90;;;;;;5107441;28;20221;-32
2022/10/25 10:55:36;;;;;;;6.83;1.90;;;17.50;99.90;;;;;;5107423;28;20217;-32
2022/10/25 10:58:03;;;;;;;6.17;1.53;;;17.50;99.90;;;;;;5108879;28;20277;-32
2022/10/25 11:00:32;;;;;;;2.93;1.40;;;17.60;99.90;;;;;;5108633;28;20288;-32
2022/10/25 11:02:59;;;;;;;5.90;1.40;;;17.60;99.90;;;;;;5108735;28;20546;-32
2022/10/25 11:05:36;;;;;;;6.37;1.40;;;17.60;99.90;;;;;;5108610;28;20549;-32
2022/10/25 11:08:06;;;;;;;14.37;3.13;;;17.60;99.90;;;;;;5108638;28;20213;-32
2022/10/25 11:10:35;;;;;;;10.27;2.50;;;17.60;99.90;;;;;;5109082;28;20201;-32
2022/10/25 11:13:10;;;;;;;6.10;2.20;;;17.60;99.90;;;;;;5108321;28;20293;-32
2022/10/25 11:15:58;;;;;;;4.63;1.60;;;17.60;99.90;;;;;;5109126;28;20253;-32
2022/10/25 11:18:47;;;;;;;6.38;1.95;;;17.60;99.90;;;;;;5108674;28;20195;-32
2022/10/25 11:21:23;;;;;;;7.43;1.70;;;17.60;99.90;;;;;;5090161;28;20191;-32
2022/10/25 11:24:26;;;;;;;6.30;1.87;;;17.60;99.90;;;;;;5108610;28;20680;-32
2022/10/25 11:26:53;;;;;;;5.10;1.60;;;17.70;99.90;;;;;;5105557;28;20214;-32
2022/10/25 11:29:54;;;;;;;8.90;2.30;;;17.60;99.90;;;;;;5108444;28;20202;-32
2022/10/25 11:32:40;;;;;;;10.00;2.03;;;17.70;99.90;;;;;;5109044;28;20232;-32
2022/10/25 11:35:33;;;;;;;5.40;1.80;;;17.80;99.90;;;;;;5109044;28;20222;-32
2022/10/25 11:38:23;;;;;;;3.80;1.70;;;17.90;99.90;;;;;;5112091;28;20195;-32
2022/10/25 11:41:24;;;;;;;5.53;1.50;;;17.90;99.90;;;;;;5112013;28;20627;-32
2022/10/25 11:44:04;;;;;;;5.10;1.53;;;18.00;99.90;;;;;;5112199;28;20714;-32
2022/10/25 11:46:40;;;;;;;5.17;1.57;;;18.00;99.90;;;;;;5112120;28;20203;-32
2022/10/25 11:49:15;;;;;;;5.63;1.77;;;18.10;99.90;;;;;;5111847;28;20189;-32
2022/10/25 11:51:57;;;;;;;4.60;1.77;;;18.10;99.90;;;;;;5111808;28;20221;-32
2022/10/25 11:54:35;;;;;;;8.20;1.80;;;18.20;99.90;;;;;;5111841;28;20210;-32
2022/10/25 11:57:19;;;;;;;8.17;2.13;;;18.10;99.90;;;;;;5111929;28;20293;-32
2022/10/25 12:00:20;;;;;;;8.27;2.20;;;18.30;99.90;;;;;;5111739;28;20687;-32
2022/10/25 12:03:09;;;;;;;8.02;2.20;;;18.30;99.90;;;;;;5107958;28;20199;-32
2022/10/25 12:06:01;;;;;;;7.77;2.00;;;18.30;99.90;;;;;;5111398;28;20297;-32
2022/10/25 12:09:07;;;;;;;7.47;2.03;;;18.30;99.90;;;;;;5111547;28;20214;-32
2022/10/25 12:11:46;;;;;;;6.15;2.45;;;18.40;99.90;;;;;;5110775;28;20210;-32
2022/10/25 12:14:18;;;;;;;4.73;2.20;;;18.30;99.90;;;;;;5111456;28;20217;-32
2022/10/25 12:16:46;;;;;;;3.03;1.87;;;18.30;99.90;;;;;;5111440;28;20198;-32
2022/10/25 12:19:21;;;;;;;5.85;2.10;;;18.30;99.90;;;;;;5111374;28;20226;-32
2022/10/25 12:22:03;;;;;;;5.07;2.10;;;18.30;99.90;;;;;;5111768;28;20542;-32
2022/10/25 12:24:42;;;;;;;5.90;2.00;;;18.30;99.90;;;;;;5110363;28;20214;-32
2022/10/25 12:27:12;;;;;;;2.47;1.77;;;18.30;99.90;;;;;;5111628;28;20272;-32
2022/10/25 12:29:44;;;;;;;4.90;1.67;;;18.40;99.90;;;;;;5111355;28;20579;-32
2022/10/25 12:32:24;;;;;;;7.80;1.80;;;18.40;99.90;;;;;;5111222;28;20233;-33
2022/10/25 12:34:56;;;;;;;5.63;2.10;;;18.40;99.90;;;;;;5110841;28;20317;-32
2022/10/25 12:37:45;;;;;;;4.90;1.60;;;18.50;99.90;;;;;;5093424;28;20199;-31
2022/10/25 12:40:19;;;;;;;7.73;2.10;;;18.50;99.90;;;;;;5111002;28;20289;-32
2022/10/25 12:42:48;;;;;;;6.30;1.97;;;18.50;99.90;;;;;;5111133;28;20190;-32
2022/10/25 12:45:34;;;;;;;4.77;1.87;;;18.50;99.90;;;;;;5111419;28;20566;-32
2022/10/25 12:48:32;;;;;;;6.07;2.37;;;18.50;99.90;;;;;;5110498;28;20558;-32
2022/10/25 12:51:17;;;;;;;6.13;1.97;;;18.50;99.90;;;;;;5111043;28;20213;-32
2022/10/25 12:54:38;;;;;;;8.83;2.10;;;18.60;99.90;;;;;;5110871;28;20567;-32
2022/10/25 12:57:42;;;;;;;7.77;1.93;;;18.70;99.90;;;;;;5087713;28;20251;-32
2022/10/25 13:00:17;;;;;;;4.38;1.50;;;18.70;99.90;;;;;;5087734;28;20195;-32
2022/10/25 13:03:11;;;;;;;5.30;2.10;;;18.70;99.90;;;;;;5109302;28;20537;-32
2022/10/25 13:06:00;;;;;;;6.33;1.57;;;18.70;99.90;;;;;;5111071;28;20232;-32
2022/10/25 13:08:28;;;;;;;6.70;1.80;;;18.70;99.90;;;;;;5109576;28;20210;-32
2022/10/25 13:11:01;;;;;;;2.50;0.90;;;18.70;99.90;;;;;;5109228;28;20273;-32
2022/10/25 13:13:37;;;;;;;1.80;0.83;;;18.80;99.90;;;;;;5110515;28;20202;-32
2022/10/25 13:16:08;;;;;;;3.13;0.90;;;18.80;99.90;;;;;;5109023;28;20210;-32
2022/10/25 13:19:07;;;;;;;3.73;1.10;;;18.80;99.90;;;;;;5110233;28;20226;-32
2022/10/25 13:21:53;;;;;;;4.40;1.10;;;18.80;99.90;;;;;;5110090;28;20287;-32